Terminal Aerodrome Forecast
Issued by NWS

Home | Current Version | Previous Version | Text Only | Print | Product List | Glossary On
Versions: 1 2 3 4 5 6 7 8 9 10 11 12 13 14 15 16 17 18 19 20 21 22
000
FTUS42 KMHX 041136
TAFPGV
TAF
KPGV 041136Z 0412/0512 22011G16KT P6SM BKN007
      TEMPO 0412/0413 2SM BR BKN004
     FM041430 22017G24KT P6SM FEW020 SCT040
     FM050100 20010KT 6SM BR SCT005
      AMD LTD TO CLD VIS AND WIND=

USA.gov is the U.S. government's official web portal to all federal, state and local government web resources and services.